sensor_id;sensor_type;location;lat;lon;timestamp;temperature;humidity
25906;DHT22;13713;52.552;13.204;2023-06-10T00:00:35;24.30;50.70
25906;DHT22;13713;52.552;13.204;2023-06-10T00:03:01;24.30;50.80
25906;DHT22;13713;52.552;13.204;2023-06-10T00:05:27;24.30;50.80
25906;DHT22;13713;52.552;13.204;2023-06-10T00:07:55;24.30;51.40
25906;DHT22;13713;52.552;13.204;2023-06-10T00:10:22;24.30;50.80
25906;DHT22;13713;52.552;13.204;2023-06-10T00:12:49;24.30;50.80
25906;DHT22;13713;52.552;13.204;2023-06-10T00:15:17;24.30;50.80
25906;DHT22;13713;52.552;13.204;2023-06-10T00:17:42;24.30;50.90
25906;DHT22;13713;52.552;13.204;2023-06-10T00:20:09;24.30;50.90
25906;DHT22;13713;52.552;13.204;2023-06-10T00:22:38;24.30;50.90
25906;DHT22;13713;52.552;13.204;2023-06-10T00:25:05;24.30;50.90
25906;DHT22;13713;52.552;13.204;2023-06-10T00:27:31;24.30;50.90
25906;DHT22;13713;52.552;13.204;2023-06-10T00:30:04;24.30;50.90
25906;DHT22;13713;52.552;13.204;2023-06-10T00:32:35;24.30;50.90
25906;DHT22;13713;52.552;13.204;2023-06-10T00:35:02;24.30;51.00
25906;DHT22;13713;52.552;13.204;2023-06-10T00:37:30;24.30;51.00
25906;DHT22;13713;52.552;13.204;2023-06-10T00:39:57;24.30;51.00
25906;DHT22;13713;52.552;13.204;2023-06-10T00:42:24;24.30;51.00
25906;DHT22;13713;52.552;13.204;2023-06-10T00:44:51;24.30;51.10
25906;DHT22;13713;52.552;13.204;2023-06-10T00:47:17;24.30;51.10
25906;DHT22;13713;52.552;13.204;2023-06-10T00:49:44;24.30;51.10
25906;DHT22;13713;52.552;13.204;2023-06-10T00:52:10;24.30;51.10
25906;DHT22;13713;52.552;13.204;2023-06-10T00:54:39;24.30;51.10
25906;DHT22;13713;52.552;13.204;2023-06-10T00:57:05;24.20;51.00
25906;DHT22;13713;52.552;13.204;2023-06-10T00:59:31;24.20;51.00
25906;DHT22;13713;52.552;13.204;2023-06-10T01:01:57;24.20;51.00
25906;DHT22;13713;52.552;13.204;2023-06-10T01:04:23;24.20;51.10
25906;DHT22;13713;52.552;13.204;2023-06-10T01:07:10;24.20;51.10
25906;DHT22;13713;52.552;13.204;2023-06-10T01:12:36;24.20;51.10
25906;DHT22;13713;52.552;13.204;2023-06-10T01:15:05;24.20;51.10
25906;DHT22;13713;52.552;13.204;2023-06-10T01:17:31;24.20;51.20
25906;DHT22;13713;52.552;13.204;2023-06-10T01:19:57;24.20;51.20
25906;DHT22;13713;52.552;13.204;2023-06-10T01:22:27;24.20;51.20
25906;DHT22;13713;52.552;13.204;2023-06-10T01:25:02;24.20;51.30
25906;DHT22;13713;52.552;13.204;2023-06-10T01:27:33;24.20;51.20
25906;DHT22;13713;52.552;13.204;2023-06-10T01:30:11;24.20;51.30
25906;DHT22;13713;52.552;13.204;2023-06-10T01:32:48;24.20;51.30
25906;DHT22;13713;52.552;13.204;2023-06-10T01:35:15;24.20;51.30
25906;DHT22;13713;52.552;13.204;2023-06-10T01:37:43;24.20;51.30
25906;DHT22;13713;52.552;13.204;2023-06-10T01:40:11;24.20;51.30
25906;DHT22;13713;52.552;13.204;2023-06-10T01:42:38;24.10;51.30
25906;DHT22;13713;52.552;13.204;2023-06-10T01:45:04;24.20;51.30
25906;DHT22;13713;52.552;13.204;2023-06-10T01:47:30;24.10;51.30
25906;DHT22;13713;52.552;13.204;2023-06-10T01:49:55;24.20;51.40
25906;DHT22;13713;52.552;13.204;2023-06-10T01:52:21;24.10;51.30
25906;DHT22;13713;52.552;13.204;2023-06-10T01:54:47;24.10;51.30
25906;DHT22;13713;52.552;13.204;2023-06-10T01:57:13;24.10;51.30
25906;DHT22;13713;52.552;13.204;2023-06-10T01:59:38;24.10;51.40
25906;DHT22;13713;52.552;13.204;2023-06-10T02:02:05;24.10;51.40
25906;DHT22;13713;52.552;13.204;2023-06-10T02:04:31;24.10;51.40
25906;DHT22;13713;52.552;13.204;2023-06-10T02:06:59;24.10;51.40
25906;DHT22;13713;52.552;13.204;2023-06-10T02:09:32;24.10;51.40
25906;DHT22;13713;52.552;13.204;2023-06-10T02:12:01;24.10;51.40
25906;DHT22;13713;52.552;13.204;2023-06-10T02:14:27;24.10;51.40
25906;DHT22;13713;52.552;13.204;2023-06-10T02:16:52;24.10;51.40
25906;DHT22;13713;52.552;13.204;2023-06-10T02:19:22;24.10;51.40
25906;DHT22;13713;52.552;13.204;2023-06-10T02:21:48;24.10;51.40
25906;DHT22;13713;52.552;13.204;2023-06-10T02:24:13;24.10;51.40
25906;DHT22;13713;52.552;13.204;2023-06-10T02:26:39;24.10;51.40
25906;DHT22;13713;52.552;13.204;2023-06-10T02:29:06;24.10;51.50
25906;DHT22;13713;52.552;13.204;2023-06-10T02:31:31;24.10;51.50
25906;DHT22;13713;52.552;13.204;2023-06-10T02:33:58;24.10;51.50
25906;DHT22;13713;52.552;13.204;2023-06-10T02:36:24;24.10;51.50
25906;DHT22;13713;52.552;13.204;2023-06-10T02:38:53;24.10;51.50
25906;DHT22;13713;52.552;13.204;2023-06-10T02:41:19;24.10;51.60
25906;DHT22;13713;52.552;13.204;2023-06-10T02:43:46;24.10;51.50
25906;DHT22;13713;52.552;13.204;2023-06-10T02:46:11;24.10;51.50
25906;DHT22;13713;52.552;13.204;2023-06-10T02:48:45;24.10;51.60
25906;DHT22;13713;52.552;13.204;2023-06-10T02:51:13;24.10;51.60
25906;DHT22;13713;52.552;13.204;2023-06-10T02:53:42;24.00;51.60
25906;DHT22;13713;52.552;13.204;2023-06-10T02:56:11;24.10;51.60
25906;DHT22;13713;52.552;13.204;2023-06-10T02:58:38;24.00;51.60
25906;DHT22;13713;52.552;13.204;2023-06-10T03:01:05;24.00;51.60
25906;DHT22;13713;52.552;13.204;2023-06-10T03:03:40;24.00;51.60
25906;DHT22;13713;52.552;13.204;2023-06-10T03:06:10;24.10;51.60
25906;DHT22;13713;52.552;13.204;2023-06-10T03:08:36;24.00;51.60
25906;DHT22;13713;52.552;13.204;2023-06-10T03:11:07;24.10;51.60
25906;DHT22;13713;52.552;13.204;2023-06-10T03:13:34;24.00;51.60
25906;DHT22;13713;52.552;13.204;2023-06-10T03:16:01;24.00;51.60
25906;DHT22;13713;52.552;13.204;2023-06-10T03:18:29;24.10;51.70
25906;DHT22;13713;52.552;13.204;2023-06-10T03:20:55;24.00;51.60
25906;DHT22;13713;52.552;13.204;2023-06-10T03:23:23;24.00;51.60
25906;DHT22;13713;52.552;13.204;2023-06-10T03:25:49;24.00;51.90
25906;DHT22;13713;52.552;13.204;2023-06-10T03:28:17;24.00;51.70
25906;DHT22;13713;52.552;13.204;2023-06-10T03:30:44;24.00;51.70
25906;DHT22;13713;52.552;13.204;2023-06-10T03:33:10;24.00;51.70
25906;DHT22;13713;52.552;13.204;2023-06-10T03:35:37;24.00;51.70
25906;DHT22;13713;52.552;13.204;2023-06-10T03:38:04;24.00;51.70
25906;DHT22;13713;52.552;13.204;2023-06-10T03:40:30;24.00;51.70
25906;DHT22;13713;52.552;13.204;2023-06-10T03:42:58;24.00;51.80
25906;DHT22;13713;52.552;13.204;2023-06-10T03:45:24;24.00;51.80
25906;DHT22;13713;52.552;13.204;2023-06-10T03:47:50;24.00;51.80
25906;DHT22;13713;52.552;13.204;2023-06-10T03:50:20;24.00;52.40
25906;DHT22;13713;52.552;13.204;2023-06-10T03:52:46;24.00;51.70
25906;DHT22;13713;52.552;13.204;2023-06-10T03:55:13;24.00;51.80
25906;DHT22;13713;52.552;13.204;2023-06-10T03:57:43;24.00;51.80
25906;DHT22;13713;52.552;13.204;2023-06-10T04:00:09;24.00;51.80
25906;DHT22;13713;52.552;13.204;2023-06-10T04:02:40;24.00;51.80
25906;DHT22;13713;52.552;13.204;2023-06-10T04:05:13;24.00;51.80
25906;DHT22;13713;52.552;13.204;2023-06-10T04:07:40;24.00;51.90
25906;DHT22;13713;52.552;13.204;2023-06-10T04:10:10;23.90;51.80
25906;DHT22;13713;52.552;13.204;2023-06-10T04:12:36;24.00;51.90
25906;DHT22;13713;52.552;13.204;2023-06-10T04:15:03;24.00;51.90
25906;DHT22;13713;52.552;13.204;2023-06-10T04:17:30;23.90;51.80
25906;DHT22;13713;52.552;13.204;2023-06-10T04:19:56;24.00;51.90
25906;DHT22;13713;52.552;13.204;2023-06-10T04:22:23;23.90;51.80
25906;DHT22;13713;52.552;13.204;2023-06-10T04:24:48;24.00;51.90
25906;DHT22;13713;52.552;13.204;2023-06-10T04:27:15;23.90;51.80
25906;DHT22;13713;52.552;13.204;2023-06-10T04:29:41;23.90;51.80
25906;DHT22;13713;52.552;13.204;2023-06-10T04:32:07;23.90;51.90
25906;DHT22;13713;52.552;13.204;2023-06-10T04:34:34;23.90;51.80
25906;DHT22;13713;52.552;13.204;2023-06-10T04:37:00;23.80;51.80
25906;DHT22;13713;52.552;13.204;2023-06-10T04:39:26;23.90;51.90
25906;DHT22;13713;52.552;13.204;2023-06-10T04:41:52;23.90;51.90
25906;DHT22;13713;52.552;13.204;2023-06-10T04:44:18;23.90;51.90
25906;DHT22;13713;52.552;13.204;2023-06-10T04:46:44;23.90;51.90
25906;DHT22;13713;52.552;13.204;2023-06-10T04:49:11;23.90;51.90
25906;DHT22;13713;52.552;13.204;2023-06-10T04:51:40;23.90;51.90
25906;DHT22;13713;52.552;13.204;2023-06-10T04:54:07;23.90;51.90
25906;DHT22;13713;52.552;13.204;2023-06-10T04:56:32;23.90;51.90
25906;DHT22;13713;52.552;13.204;2023-06-10T04:58:59;23.90;51.90
25906;DHT22;13713;52.552;13.204;2023-06-10T05:01:25;23.90;51.90
25906;DHT22;13713;52.552;13.204;2023-06-10T05:03:50;23.90;52.00
25906;DHT22;13713;52.552;13.204;2023-06-10T05:06:16;23.90;52.00
25906;DHT22;13713;52.552;13.204;2023-06-10T05:08:42;23.90;52.00
25906;DHT22;13713;52.552;13.204;2023-06-10T05:11:07;23.90;52.00
25906;DHT22;13713;52.552;13.204;2023-06-10T05:13:34;23.90;52.00
25906;DHT22;13713;52.552;13.204;2023-06-10T05:15:59;23.90;52.00
25906;DHT22;13713;52.552;13.204;2023-06-10T05:18:25;23.90;52.00
25906;DHT22;13713;52.552;13.204;2023-06-10T05:20:50;23.90;52.00
25906;DHT22;13713;52.552;13.204;2023-06-10T05:23:16;23.90;52.00
25906;DHT22;13713;52.552;13.204;2023-06-10T05:25:42;23.90;52.00
25906;DHT22;13713;52.552;13.204;2023-06-10T05:28:08;23.90;52.10
25906;DHT22;13713;52.552;13.204;2023-06-10T05:30:37;23.90;52.00
25906;DHT22;13713;52.552;13.204;2023-06-10T05:33:06;23.90;52.10
25906;DHT22;13713;52.552;13.204;2023-06-10T05:35:32;23.90;52.00
25906;DHT22;13713;52.552;13.204;2023-06-10T05:37:57;23.90;52.00
25906;DHT22;13713;52.552;13.204;2023-06-10T05:40:23;23.90;52.10
25906;DHT22;13713;52.552;13.204;2023-06-10T05:42:49;23.90;52.00
25906;DHT22;13713;52.552;13.204;2023-06-10T05:45:15;23.90;52.10
25906;DHT22;13713;52.552;13.204;2023-06-10T05:47:41;23.90;52.00
25906;DHT22;13713;52.552;13.204;2023-06-10T05:50:07;24.00;52.10
25906;DHT22;13713;52.552;13.204;2023-06-10T05:52:37;23.90;52.00
25906;DHT22;13713;52.552;13.204;2023-06-10T05:55:06;23.90;52.00
25906;DHT22;13713;52.552;13.204;2023-06-10T05:57:32;23.90;52.10
25906;DHT22;13713;52.552;13.204;2023-06-10T05:59:58;24.00;52.10
25906;DHT22;13713;52.552;13.204;2023-06-10T06:02:24;23.90;52.10
25906;DHT22;13713;52.552;13.204;2023-06-10T06:04:49;23.90;52.10
25906;DHT22;13713;52.552;13.204;2023-06-10T06:07:15;23.90;52.10
25906;DHT22;13713;52.552;13.204;2023-06-10T06:09:41;23.90;52.10
25906;DHT22;13713;52.552;13.204;2023-06-10T06:12:07;23.90;52.10
25906;DHT22;13713;52.552;13.204;2023-06-10T06:14:37;23.90;52.10
25906;DHT22;13713;52.552;13.204;2023-06-10T06:17:05;23.90;52.20
25906;DHT22;13713;52.552;13.204;2023-06-10T06:19:31;23.90;52.10
25906;DHT22;13713;52.552;13.204;2023-06-10T06:21:57;23.90;52.10
25906;DHT22;13713;52.552;13.204;2023-06-10T06:24:22;24.00;52.20
25906;DHT22;13713;52.552;13.204;2023-06-10T06:26:48;23.90;52.10
25906;DHT22;13713;52.552;13.204;2023-06-10T06:29:14;24.00;52.20
25906;DHT22;13713;52.552;13.204;2023-06-10T06:31:39;23.90;52.10
25906;DHT22;13713;52.552;13.204;2023-06-10T06:34:05;24.00;52.20
25906;DHT22;13713;52.552;13.204;2023-06-10T06:36:30;23.90;52.10
25906;DHT22;13713;52.552;13.204;2023-06-10T06:38:56;24.00;52.20
25906;DHT22;13713;52.552;13.204;2023-06-10T06:41:27;24.00;52.20
25906;DHT22;13713;52.552;13.204;2023-06-10T06:43:54;24.00;52.20
25906;DHT22;13713;52.552;13.204;2023-06-10T06:46:30;24.00;52.20
25906;DHT22;13713;52.552;13.204;2023-06-10T06:48:55;24.00;52.20
25906;DHT22;13713;52.552;13.204;2023-06-10T06:51:21;24.00;52.20
25906;DHT22;13713;52.552;13.204;2023-06-10T06:53:46;24.00;52.20
25906;DHT22;13713;52.552;13.204;2023-06-10T06:56:13;24.00;52.20
25906;DHT22;13713;52.552;13.204;2023-06-10T06:58:39;24.00;52.20
25906;DHT22;13713;52.552;13.204;2023-06-10T07:01:04;24.00;52.20
25906;DHT22;13713;52.552;13.204;2023-06-10T07:03:30;24.00;52.20
25906;DHT22;13713;52.552;13.204;2023-06-10T07:05:56;24.00;52.20
25906;DHT22;13713;52.552;13.204;2023-06-10T07:08:22;24.00;52.20
25906;DHT22;13713;52.552;13.204;2023-06-10T07:10:47;24.00;52.30
25906;DHT22;13713;52.552;13.204;2023-06-10T07:13:14;23.90;52.80
25906;DHT22;13713;52.552;13.204;2023-06-10T07:15:40;24.00;52.20
25906;DHT22;13713;52.552;13.204;2023-06-10T07:18:06;24.00;52.20
25906;DHT22;13713;52.552;13.204;2023-06-10T07:20:31;24.00;52.20
25906;DHT22;13713;52.552;13.204;2023-06-10T07:22:57;24.00;52.20
25906;DHT22;13713;52.552;13.204;2023-06-10T07:25:23;24.00;52.20
25906;DHT22;13713;52.552;13.204;2023-06-10T07:27:49;24.00;52.20
25906;DHT22;13713;52.552;13.204;2023-06-10T07:30:15;24.00;52.20
25906;DHT22;13713;52.552;13.204;2023-06-10T07:32:41;24.00;52.20
25906;DHT22;13713;52.552;13.204;2023-06-10T07:35:09;24.00;52.20
25906;DHT22;13713;52.552;13.204;2023-06-10T07:37:36;24.00;52.20
25906;DHT22;13713;52.552;13.204;2023-06-10T07:40:02;24.00;52.20
25906;DHT22;13713;52.552;13.204;2023-06-10T07:42:27;24.00;52.20
25906;DHT22;13713;52.552;13.204;2023-06-10T07:44:53;24.00;52.20
25906;DHT22;13713;52.552;13.204;2023-06-10T07:47:19;24.00;52.30
25906;DHT22;13713;52.552;13.204;2023-06-10T07:49:44;24.00;52.30
25906;DHT22;13713;52.552;13.204;2023-06-10T07:52:10;24.00;52.20
25906;DHT22;13713;52.552;13.204;2023-06-10T07:54:36;24.00;52.20
25906;DHT22;13713;52.552;13.204;2023-06-10T07:57:02;24.00;52.30
25906;DHT22;13713;52.552;13.204;2023-06-10T07:59:27;24.00;52.20
25906;DHT22;13713;52.552;13.204;2023-06-10T08:01:53;24.00;52.20
25906;DHT22;13713;52.552;13.204;2023-06-10T08:04:19;24.00;52.20
25906;DHT22;13713;52.552;13.204;2023-06-10T08:06:44;24.00;52.20
25906;DHT22;13713;52.552;13.204;2023-06-10T08:09:10;24.00;52.30
25906;DHT22;13713;52.552;13.204;2023-06-10T08:11:36;24.00;52.20
25906;DHT22;13713;52.552;13.204;2023-06-10T08:14:01;24.00;52.20
25906;DHT22;13713;52.552;13.204;2023-06-10T08:16:27;24.00;52.30
25906;DHT22;13713;52.552;13.204;2023-06-10T08:18:53;24.00;52.20
25906;DHT22;13713;52.552;13.204;2023-06-10T08:21:18;24.10;52.30
25906;DHT22;13713;52.552;13.204;2023-06-10T08:23:44;24.00;52.30
25906;DHT22;13713;52.552;13.204;2023-06-10T08:26:10;24.00;52.30
25906;DHT22;13713;52.552;13.204;2023-06-10T08:28:36;24.00;52.30
25906;DHT22;13713;52.552;13.204;2023-06-10T08:31:01;24.00;52.30
25906;DHT22;13713;52.552;13.204;2023-06-10T08:33:27;24.00;52.30
25906;DHT22;13713;52.552;13.204;2023-06-10T08:35:53;24.00;52.30
25906;DHT22;13713;52.552;13.204;2023-06-10T08:38:18;24.00;52.30
25906;DHT22;13713;52.552;13.204;2023-06-10T08:40:44;24.00;52.30
25906;DHT22;13713;52.552;13.204;2023-06-10T08:46:00;24.00;52.30
25906;DHT22;13713;52.552;13.204;2023-06-10T08:48:29;24.10;52.30
25906;DHT22;13713;52.552;13.204;2023-06-10T08:50:57;24.10;52.30
25906;DHT22;13713;52.552;13.204;2023-06-10T08:53:24;24.10;52.30
25906;DHT22;13713;52.552;13.204;2023-06-10T08:55:51;24.10;52.30
25906;DHT22;13713;52.552;13.204;2023-06-10T08:58:18;24.10;52.30
25906;DHT22;13713;52.552;13.204;2023-06-10T09:00:45;24.10;52.30
25906;DHT22;13713;52.552;13.204;2023-06-10T09:03:11;24.10;52.30
25906;DHT22;13713;52.552;13.204;2023-06-10T09:05:38;24.10;52.30
25906;DHT22;13713;52.552;13.204;2023-06-10T09:08:05;24.10;52.30
25906;DHT22;13713;52.552;13.204;2023-06-10T09:10:32;24.10;52.30
25906;DHT22;13713;52.552;13.204;2023-06-10T09:12:58;24.00;52.30
25906;DHT22;13713;52.552;13.204;2023-06-10T09:15:23;24.10;52.40
25906;DHT22;13713;52.552;13.204;2023-06-10T09:17:49;24.00;52.40
25906;DHT22;13713;52.552;13.204;2023-06-10T09:20:16;24.10;52.40
25906;DHT22;13713;52.552;13.204;2023-06-10T09:22:42;24.10;52.40
25906;DHT22;13713;52.552;13.204;2023-06-10T09:25:11;24.10;52.40
25906;DHT22;13713;52.552;13.204;2023-06-10T09:27:47;24.10;52.40
25906;DHT22;13713;52.552;13.204;2023-06-10T09:30:29;24.10;52.40
25906;DHT22;13713;52.552;13.204;2023-06-10T09:32:56;24.10;52.40
25906;DHT22;13713;52.552;13.204;2023-06-10T09:35:27;24.10;52.40
25906;DHT22;13713;52.552;13.204;2023-06-10T09:37:57;24.10;52.40
25906;DHT22;13713;52.552;13.204;2023-06-10T09:40:23;24.10;52.40
25906;DHT22;13713;52.552;13.204;2023-06-10T09:42:59;24.10;52.40
25906;DHT22;13713;52.552;13.204;2023-06-10T09:45:32;24.10;52.40
25906;DHT22;13713;52.552;13.204;2023-06-10T09:47:58;24.10;52.50
25906;DHT22;13713;52.552;13.204;2023-06-10T09:50:24;24.10;52.50
25906;DHT22;13713;52.552;13.204;2023-06-10T09:52:50;24.10;52.50
25906;DHT22;13713;52.552;13.204;2023-06-10T09:55:17;24.10;52.50
25906;DHT22;13713;52.552;13.204;2023-06-10T09:57:43;24.10;52.50
25906;DHT22;13713;52.552;13.204;2023-06-10T10:00:14;24.10;52.50
25906;DHT22;13713;52.552;13.204;2023-06-10T10:02:45;24.10;52.50
25906;DHT22;13713;52.552;13.204;2023-06-10T10:05:13;24.10;52.60
25906;DHT22;13713;52.552;13.204;2023-06-10T10:07:40;24.10;52.60
25906;DHT22;13713;52.552;13.204;2023-06-10T10:10:06;24.00;52.50
25906;DHT22;13713;52.552;13.204;2023-06-10T10:12:34;24.10;52.60
25906;DHT22;13713;52.552;13.204;2023-06-10T10:15:02;24.00;52.50
25906;DHT22;13713;52.552;13.204;2023-06-10T10:17:28;24.10;52.60
25906;DHT22;13713;52.552;13.204;2023-06-10T10:20:02;24.10;52.60
25906;DHT22;13713;52.552;13.204;2023-06-10T10:22:37;24.10;52.60
25906;DHT22;13713;52.552;13.204;2023-06-10T10:25:12;24.10;52.60
25906;DHT22;13713;52.552;13.204;2023-06-10T10:27:57;24.10;52.60
25906;DHT22;13713;52.552;13.204;2023-06-10T10:30:25;24.10;52.60
25906;DHT22;13713;52.552;13.204;2023-06-10T10:32:59;24.10;52.70
25906;DHT22;13713;52.552;13.204;2023-06-10T10:35:27;24.10;52.70
25906;DHT22;13713;52.552;13.204;2023-06-10T10:37:54;24.10;52.70
25906;DHT22;13713;52.552;13.204;2023-06-10T10:40:23;24.10;52.70
25906;DHT22;13713;52.552;13.204;2023-06-10T10:42:51;24.10;52.70
25906;DHT22;13713;52.552;13.204;2023-06-10T10:45:17;24.10;52.70
25906;DHT22;13713;52.552;13.204;2023-06-10T10:47:45;24.10;52.70
25906;DHT22;13713;52.552;13.204;2023-06-10T10:50:16;24.10;52.80
25906;DHT22;13713;52.552;13.204;2023-06-10T10:52:52;24.00;52.70
25906;DHT22;13713;52.552;13.204;2023-06-10T10:55:24;24.00;53.40
25906;DHT22;13713;52.552;13.204;2023-06-10T11:00:29;24.00;52.80
25906;DHT22;13713;52.552;13.204;2023-06-10T11:02:58;24.10;52.80
25906;DHT22;13713;52.552;13.204;2023-06-10T11:05:39;24.00;52.90
25906;DHT22;13713;52.552;13.204;2023-06-10T11:08:05;24.00;52.90
25906;DHT22;13713;52.552;13.204;2023-06-10T11:10:39;24.00;52.90
25906;DHT22;13713;52.552;13.204;2023-06-10T11:13:09;24.00;52.90
25906;DHT22;13713;52.552;13.204;2023-06-10T11:15:46;24.00;52.90
25906;DHT22;13713;52.552;13.204;2023-06-10T11:23:26;24.00;52.90
25906;DHT22;13713;52.552;13.204;2023-06-10T11:31:25;24.00;53.00
25906;DHT22;13713;52.552;13.204;2023-06-10T11:33:56;24.00;53.00
25906;DHT22;13713;52.552;13.204;2023-06-10T11:36:22;24.00;53.00
25906;DHT22;13713;52.552;13.204;2023-06-10T11:38:48;24.00;53.00
25906;DHT22;13713;52.552;13.204;2023-06-10T11:41:15;24.00;53.00
25906;DHT22;13713;52.552;13.204;2023-06-10T11:43:46;24.00;53.00
25906;DHT22;13713;52.552;13.204;2023-06-10T11:46:12;24.10;53.10
25906;DHT22;13713;52.552;13.204;2023-06-10T11:48:38;24.00;53.00
25906;DHT22;13713;52.552;13.204;2023-06-10T11:51:07;24.00;53.00
25906;DHT22;13713;52.552;13.204;2023-06-10T11:53:33;24.00;53.10
25906;DHT22;13713;52.552;13.204;2023-06-10T11:55:59;24.00;53.10
25906;DHT22;13713;52.552;13.204;2023-06-10T11:58:25;24.00;53.00
25906;DHT22;13713;52.552;13.204;2023-06-10T12:00:52;24.00;53.00
25906;DHT22;13713;52.552;13.204;2023-06-10T12:03:19;24.00;53.10
25906;DHT22;13713;52.552;13.204;2023-06-10T12:06:06;24.00;53.10
25906;DHT22;13713;52.552;13.204;2023-06-10T12:08:33;24.00;53.10
25906;DHT22;13713;52.552;13.204;2023-06-10T12:10:59;24.00;53.10
25906;DHT22;13713;52.552;13.204;2023-06-10T12:13:27;24.00;53.20
25906;DHT22;13713;52.552;13.204;2023-06-10T12:15:53;24.00;53.10
25906;DHT22;13713;52.552;13.204;2023-06-10T12:18:21;24.00;53.20
25906;DHT22;13713;52.552;13.204;2023-06-10T12:20:48;24.00;53.20
25906;DHT22;13713;52.552;13.204;2023-06-10T12:23:15;24.00;53.20
25906;DHT22;13713;52.552;13.204;2023-06-10T12:25:51;24.00;53.20
25906;DHT22;13713;52.552;13.204;2023-06-10T12:28:24;24.00;53.20
25906;DHT22;13713;52.552;13.204;2023-06-10T12:30:50;24.00;53.20
25906;DHT22;13713;52.552;13.204;2023-06-10T12:33:19;24.00;53.20
25906;DHT22;13713;52.552;13.204;2023-06-10T12:35:50;24.00;53.20
25906;DHT22;13713;52.552;13.204;2023-06-10T12:38:25;24.00;53.20
25906;DHT22;13713;52.552;13.204;2023-06-10T12:41:02;24.00;53.30
25906;DHT22;13713;52.552;13.204;2023-06-10T12:43:31;23.90;53.20
25906;DHT22;13713;52.552;13.204;2023-06-10T12:46:08;24.00;53.30
25906;DHT22;13713;52.552;13.204;2023-06-10T12:48:35;24.00;53.30
25906;DHT22;13713;52.552;13.204;2023-06-10T12:51:01;24.00;53.30
25906;DHT22;13713;52.552;13.204;2023-06-10T12:53:26;24.00;53.30
25906;DHT22;13713;52.552;13.204;2023-06-10T12:55:52;24.00;53.30
25906;DHT22;13713;52.552;13.204;2023-06-10T12:58:22;24.00;53.30
25906;DHT22;13713;52.552;13.204;2023-06-10T13:00:48;24.00;53.30
25906;DHT22;13713;52.552;13.204;2023-06-10T13:03:14;24.00;53.30
25906;DHT22;13713;52.552;13.204;2023-06-10T13:05:40;24.00;53.30
25906;DHT22;13713;52.552;13.204;2023-06-10T13:08:07;24.00;53.30
25906;DHT22;13713;52.552;13.204;2023-06-10T13:10:33;24.00;53.30
25906;DHT22;13713;52.552;13.204;2023-06-10T13:13:03;24.00;53.30
25906;DHT22;13713;52.552;13.204;2023-06-10T13:15:32;24.00;53.30
25906;DHT22;13713;52.552;13.204;2023-06-10T13:18:02;24.00;53.40
25906;DHT22;13713;52.552;13.204;2023-06-10T13:20:29;24.00;53.40
25906;DHT22;13713;52.552;13.204;2023-06-10T13:22:55;24.00;53.40
25906;DHT22;13713;52.552;13.204;2023-06-10T13:25:20;24.00;53.40
25906;DHT22;13713;52.552;13.204;2023-06-10T13:27:46;24.00;53.40
25906;DHT22;13713;52.552;13.204;2023-06-10T13:30:12;24.00;53.40
25906;DHT22;13713;52.552;13.204;2023-06-10T13:32:38;24.00;53.40
25906;DHT22;13713;52.552;13.204;2023-06-10T13:35:04;24.00;53.40
25906;DHT22;13713;52.552;13.204;2023-06-10T13:37:30;24.00;53.40
25906;DHT22;13713;52.552;13.204;2023-06-10T13:39:55;24.00;53.50
25906;DHT22;13713;52.552;13.204;2023-06-10T13:42:21;24.00;53.40
25906;DHT22;13713;52.552;13.204;2023-06-10T13:44:47;24.00;53.40
25906;DHT22;13713;52.552;13.204;2023-06-10T13:47:14;24.00;53.50
25906;DHT22;13713;52.552;13.204;2023-06-10T13:49:40;24.00;53.40
25906;DHT22;13713;52.552;13.204;2023-06-10T13:52:06;24.00;53.50
25906;DHT22;13713;52.552;13.204;2023-06-10T13:54:33;24.00;53.50
25906;DHT22;13713;52.552;13.204;2023-06-10T13:56:58;24.00;53.50
25906;DHT22;13713;52.552;13.204;2023-06-10T13:59:25;24.00;53.50
25906;DHT22;13713;52.552;13.204;2023-06-10T14:01:51;24.00;53.50
25906;DHT22;13713;52.552;13.204;2023-06-10T14:04:17;24.00;53.50
25906;DHT22;13713;52.552;13.204;2023-06-10T14:06:43;24.00;53.50
25906;DHT22;13713;52.552;13.204;2023-06-10T14:09:09;24.00;53.60
25906;DHT22;13713;52.552;13.204;2023-06-10T14:11:34;24.00;53.50
25906;DHT22;13713;52.552;13.204;2023-06-10T14:14:00;24.00;53.50
25906;DHT22;13713;52.552;13.204;2023-06-10T14:16:26;24.00;53.50
25906;DHT22;13713;52.552;13.204;2023-06-10T14:18:52;24.00;53.60
25906;DHT22;13713;52.552;13.204;2023-06-10T14:21:18;24.00;53.60
25906;DHT22;13713;52.552;13.204;2023-06-10T14:23:44;24.00;53.60
25906;DHT22;13713;52.552;13.204;2023-06-10T14:26:11;24.00;53.60
25906;DHT22;13713;52.552;13.204;2023-06-10T14:28:37;24.00;53.60
25906;DHT22;13713;52.552;13.204;2023-06-10T14:31:02;24.00;53.60
25906;DHT22;13713;52.552;13.204;2023-06-10T14:33:28;24.00;53.60
25906;DHT22;13713;52.552;13.204;2023-06-10T14:35:54;24.00;53.60
25906;DHT22;13713;52.552;13.204;2023-06-10T14:38:20;24.00;53.60
25906;DHT22;13713;52.552;13.204;2023-06-10T14:40:45;24.00;53.60
25906;DHT22;13713;52.552;13.204;2023-06-10T14:43:11;24.00;53.60
25906;DHT22;13713;52.552;13.204;2023-06-10T14:45:38;24.00;53.60
25906;DHT22;13713;52.552;13.204;2023-06-10T14:48:04;24.00;53.60
25906;DHT22;13713;52.552;13.204;2023-06-10T14:50:30;24.00;53.70
25906;DHT22;13713;52.552;13.204;2023-06-10T14:52:55;24.00;53.60
25906;DHT22;13713;52.552;13.204;2023-06-10T14:55:21;24.00;53.60
25906;DHT22;13713;52.552;13.204;2023-06-10T14:57:48;24.00;53.70
25906;DHT22;13713;52.552;13.204;2023-06-10T15:00:14;24.00;53.70
25906;DHT22;13713;52.552;13.204;2023-06-10T15:02:42;24.00;53.70
25906;DHT22;13713;52.552;13.204;2023-06-10T15:05:08;24.00;53.70
25906;DHT22;13713;52.552;13.204;2023-06-10T15:07:34;24.00;53.70
25906;DHT22;13713;52.552;13.204;2023-06-10T15:10:00;24.00;53.70
25906;DHT22;13713;52.552;13.204;2023-06-10T15:12:25;24.00;53.70
25906;DHT22;13713;52.552;13.204;2023-06-10T15:14:53;24.00;53.70
25906;DHT22;13713;52.552;13.204;2023-06-10T15:17:18;24.00;53.70
25906;DHT22;13713;52.552;13.204;2023-06-10T15:19:44;24.00;53.70
25906;DHT22;13713;52.552;13.204;2023-06-10T15:22:10;24.00;53.70
25906;DHT22;13713;52.552;13.204;2023-06-10T15:24:37;24.00;53.70
25906;DHT22;13713;52.552;13.204;2023-06-10T15:27:03;24.00;53.70
25906;DHT22;13713;52.552;13.204;2023-06-10T15:29:28;24.00;53.70
25906;DHT22;13713;52.552;13.204;2023-06-10T15:31:54;24.00;53.80
25906;DHT22;13713;52.552;13.204;2023-06-10T15:34:20;24.00;53.70